Time;durP1;ratioP1;P1;durP2;ratioP2;P2;SDS_P1;SDS_P2;PMS_P1;PMS_P2;Temp;Humidity;BMP_temperature;BMP_pressure;BME280_temperature;BME280_humidity;BME280_pressure;Samples;Min_cycle;Max_cycle;Signal;HPM_P1;HPM_P2
2022/10/14 00:01:08;;;;;;;17.27;8.30;;;11.50;99.90;;;;;;5093649;28;20051;-39
2022/10/14 00:03:35;;;;;;;16.27;8.55;;;11.50;99.90;;;;;;5091812;28;20880;-39
2022/10/14 00:06:07;;;;;;;26.15;11.43;;;11.60;99.90;;;;;;5095138;28;20634;-39
2022/10/14 00:08:33;;;;;;;37.10;10.47;;;11.50;99.90;;;;;;5094820;28;20172;-38
2022/10/14 00:11:12;;;;;;;43.33;12.68;;;11.50;99.90;;;;;;5092507;28;20670;-40
2022/10/14 00:13:38;;;;;;;75.97;12.80;;;11.50;99.90;;;;;;5093062;28;20050;-39
2022/10/14 00:16:13;;;;;;;27.45;9.57;;;11.50;99.90;;;;;;5094466;28;20039;-38
2022/10/14 00:18:38;;;;;;;78.55;11.45;;;11.50;99.90;;;;;;5091338;28;20520;-38
2022/10/14 00:21:04;;;;;;;65.13;11.00;;;11.50;99.90;;;;;;5094043;28;20046;-38
2022/10/14 00:23:30;;;;;;;144.10;15.63;;;11.40;99.90;;;;;;5093527;28;20466;-38
2022/10/14 00:25:55;;;;;;;153.30;17.60;;;11.40;99.90;;;;;;5091943;28;20569;-40
2022/10/14 00:28:21;;;;;;;121.70;14.50;;;11.40;99.90;;;;;;5096052;28;20044;-42
2022/10/14 00:30:59;;;;;;;85.93;12.40;;;11.40;99.90;;;;;;5089732;28;20042;-38
2022/10/14 00:33:26;;;;;;;59.65;11.35;;;11.30;99.90;;;;;;5087537;28;20035;-39
2022/10/14 00:36:01;;;;;;;116.68;16.73;;;11.30;99.90;;;;;;5094600;28;20102;-39
2022/10/14 00:38:27;;;;;;;37.50;10.65;;;11.30;99.90;;;;;;5094483;28;20087;-40
2022/10/14 00:40:54;;;;;;;108.07;14.90;;;11.20;99.90;;;;;;5094359;28;20628;-39
2022/10/14 00:43:22;;;;;;;160.20;18.95;;;11.20;99.90;;;;;;5094280;28;21191;-38
2022/10/14 00:45:47;;;;;;;115.00;17.23;;;11.20;99.90;;;;;;5097173;28;20062;-38
2022/10/14 00:48:14;;;;;;;160.77;19.85;;;11.20;99.90;;;;;;5094809;28;20607;-38
2022/10/14 00:50:43;;;;;;;65.85;12.05;;;11.20;99.90;;;;;;5074548;28;20035;-38
2022/10/14 00:53:11;;;;;;;130.13;17.75;;;11.10;99.90;;;;;;5093730;28;20238;-40
2022/10/14 00:55:39;;;;;;;125.03;17.83;;;11.10;99.90;;;;;;5091731;28;20084;-40
2022/10/14 00:58:06;;;;;;;180.10;19.55;;;11.10;99.90;;;;;;5094293;28;20044;-39
2022/10/14 01:00:32;;;;;;;146.50;19.92;;;11.00;99.90;;;;;;5092842;28;20749;-39
2022/10/14 01:02:58;;;;;;;46.50;13.45;;;11.00;99.90;;;;;;5093711;28;20039;-39
2022/10/14 01:05:30;;;;;;;58.60;12.68;;;11.00;99.90;;;;;;5093613;28;20043;-41
2022/10/14 01:08:10;;;;;;;92.18;17.13;;;11.00;99.90;;;;;;5093132;28;20172;-40
2022/10/14 01:10:38;;;;;;;128.43;17.50;;;11.10;99.90;;;;;;5090604;28;20036;-39
2022/10/14 01:13:28;;;;;;;145.38;17.45;;;11.10;99.90;;;;;;5092777;28;20035;-40
2022/10/14 01:16:14;;;;;;;129.20;17.80;;;11.10;99.90;;;;;;5071955;28;20047;-39
2022/10/14 01:19:23;;;;;;;81.57;13.43;;;11.00;99.90;;;;;;5093120;28;20477;-39
2022/10/14 01:22:15;;;;;;;125.18;16.05;;;10.90;99.90;;;;;;5093585;28;20554;-39
2022/10/14 01:24:42;;;;;;;67.25;12.55;;;10.90;99.90;;;;;;5081441;28;20101;-39
2022/10/14 01:27:41;;;;;;;89.40;13.93;;;10.80;99.90;;;;;;5088478;28;20048;-40
2022/10/14 01:30:13;;;;;;;142.70;15.25;;;10.80;99.90;;;;;;5094706;28;20031;-39
2022/10/14 01:32:45;;;;;;;;;;;10.70;99.90;;;;;;5093082;28;20047;-39
2022/10/14 01:35:38;;;;;;;97.38;10.73;;;10.70;99.90;;;;;;5090768;28;20385;-39
2022/10/14 01:38:13;;;;;;;82.28;11.73;;;10.60;99.90;;;;;;5088978;28;20066;-39
2022/10/14 01:40:54;;;;;;;90.68;11.55;;;10.60;99.90;;;;;;5094868;28;20205;-41
2022/10/14 01:43:21;;;;;;;68.43;9.45;;;10.50;99.90;;;;;;5098183;28;20057;-39
2022/10/14 01:45:49;;;;;;;72.60;9.10;;;10.50;99.90;;;;;;5071256;28;20043;-39
2022/10/14 01:48:18;;;;;;;81.80;10.95;;;10.50;99.90;;;;;;5096804;28;20370;-39
2022/10/14 01:50:47;;;;;;;86.32;9.23;;;10.40;99.90;;;;;;5091467;28;20421;-40
2022/10/14 01:53:24;;;;;;;85.00;8.32;;;10.40;99.90;;;;;;5091223;28;20047;-39
2022/10/14 01:55:52;;;;;;;40.47;6.03;;;10.40;99.90;;;;;;5088432;28;20573;-41
2022/10/14 01:58:25;;;;;;;98.07;11.50;;;10.30;99.90;;;;;;5087231;28;20043;-39
2022/10/14 02:00:50;;;;;;;84.53;10.38;;;10.30;99.90;;;;;;5093514;28;20043;-38
2022/10/14 02:03:16;;;;;;;107.72;10.30;;;10.20;99.90;;;;;;5088767;28;20180;-38
2022/10/14 02:05:56;;;;;;;101.90;11.40;;;10.20;99.90;;;;;;5090677;28;20046;-39
2022/10/14 02:08:45;;;;;;;62.42;8.73;;;10.20;99.90;;;;;;5094069;28;20170;-39
2022/10/14 02:11:15;;;;;;;77.72;9.15;;;10.30;99.90;;;;;;5090217;28;20584;-39
2022/10/14 02:13:44;;;;;;;47.42;7.80;;;10.30;99.90;;;;;;5092564;28;20136;-39
2022/10/14 02:16:39;;;;;;;85.60;7.60;;;10.20;99.90;;;;;;5092207;28;20055;-38
2022/10/14 02:19:24;;;;;;;92.55;10.50;;;10.20;99.90;;;;;;5094769;28;21602;-39
2022/10/14 02:21:59;;;;;;;85.82;9.57;;;10.10;99.90;;;;;;5093502;28;20040;-38
2022/10/14 02:24:32;;;;;;;82.22;8.85;;;10.10;99.90;;;;;;5093794;28;20044;-38
2022/10/14 02:27:03;;;;;;;70.53;9.38;;;10.10;99.90;;;;;;5089482;28;20520;-38
2022/10/14 02:29:30;;;;;;;74.03;9.27;;;10.10;99.90;;;;;;5093885;28;20260;-38
2022/10/14 02:31:58;;;;;;;99.25;10.52;;;10.10;99.90;;;;;;5093010;28;20032;-38
2022/10/14 02:34:24;;;;;;;86.13;10.82;;;10.10;99.90;;;;;;5094592;28;20047;-38
2022/10/14 02:36:52;;;;;;;49.88;9.75;;;10.10;99.90;;;;;;5085943;28;20040;-38
2022/10/14 02:39:33;;;;;;;130.82;13.13;;;10.10;99.90;;;;;;5088634;28;20052;-40
2022/10/14 02:41:59;;;;;;;82.13;10.43;;;10.10;99.90;;;;;;5087275;28;20093;-38
2022/10/14 02:44:25;;;;;;;62.22;8.13;;;10.20;99.90;;;;;;5090716;28;20039;-38
2022/10/14 02:46:50;;;;;;;73.85;10.55;;;10.20;99.90;;;;;;5091020;28;20036;-38
2022/10/14 02:49:16;;;;;;;90.78;10.10;;;10.30;99.90;;;;;;5094144;28;20032;-39
2022/10/14 02:51:42;;;;;;;77.25;7.00;;;10.20;99.90;;;;;;5091585;28;20036;-38
2022/10/14 02:54:08;;;;;;;94.50;8.15;;;10.20;99.90;;;;;;5093840;28;20096;-47
2022/10/14 02:56:33;;;;;;;39.22;4.43;;;10.20;99.90;;;;;;5090042;28;20040;-39
2022/10/14 02:58:59;;;;;;;82.28;6.45;;;10.10;99.90;;;;;;5091374;28;21971;-39
2022/10/14 03:01:25;;;;;;;57.97;6.50;;;10.10;99.90;;;;;;5091733;28;20532;-39
2022/10/14 03:03:50;;;;;;;42.08;5.05;;;10.10;99.90;;;;;;5081193;28;20036;-40
2022/10/14 03:06:16;;;;;;;50.45;6.70;;;10.10;99.90;;;;;;5093263;28;20036;-39
2022/10/14 03:08:42;;;;;;;22.40;4.43;;;10.10;99.90;;;;;;5091910;28;20178;-38
2022/10/14 03:11:07;;;;;;;46.05;6.47;;;10.10;99.90;;;;;;5091710;28;20058;-41
2022/10/14 03:13:33;;;;;;;47.05;5.28;;;10.10;99.90;;;;;;5092399;28;20495;-38
2022/10/14 03:15:59;;;;;;;28.95;5.18;;;10.10;99.90;;;;;;5090913;28;20082;-38
2022/10/14 03:18:25;;;;;;;30.60;4.90;;;10.20;99.90;;;;;;5094960;28;20442;-38
2022/10/14 03:20:50;;;;;;;50.45;6.15;;;10.20;99.90;;;;;;5090559;28;20039;-40
2022/10/14 03:23:16;;;;;;;20.10;3.92;;;10.20;99.90;;;;;;5091551;28;20044;-38
2022/10/14 03:25:45;;;;;;;46.92;5.82;;;10.20;99.90;;;;;;5095361;28;20055;-38
2022/10/14 03:28:11;;;;;;;41.28;6.18;;;10.30;99.90;;;;;;5096618;28;20106;-38
2022/10/14 03:30:37;;;;;;;70.18;8.68;;;10.30;99.90;;;;;;5095467;28;20573;-39
2022/10/14 03:33:03;;;;;;;43.67;6.28;;;10.30;99.90;;;;;;5074509;28;20130;-38
2022/10/14 03:35:29;;;;;;;41.78;6.93;;;10.30;99.90;;;;;;5100668;28;20039;-38
2022/10/14 03:37:55;;;;;;;33.83;7.28;;;10.30;99.90;;;;;;5095846;28;20039;-40
2022/10/14 03:40:21;;;;;;;46.53;8.40;;;10.40;99.90;;;;;;5094815;28;20430;-39
2022/10/14 03:42:47;;;;;;;37.40;8.20;;;10.40;99.90;;;;;;5094688;28;20039;-38
2022/10/14 03:45:13;;;;;;;45.03;9.73;;;10.30;99.90;;;;;;5096773;28;20051;-38
2022/10/14 03:47:38;;;;;;;32.60;7.25;;;10.40;99.90;;;;;;5099501;28;20039;-38
2022/10/14 03:50:05;;;;;;;31.75;7.93;;;10.40;99.90;;;;;;5096225;28;20080;-40
2022/10/14 03:52:31;;;;;;;44.22;7.82;;;10.40;99.90;;;;;;5069597;28;20031;-39
2022/10/14 03:54:57;;;;;;;32.30;7.90;;;10.40;99.90;;;;;;5095231;28;20036;-37
2022/10/14 03:57:23;;;;;;;15.18;5.95;;;10.40;99.90;;;;;;5093195;28;20504;-39
2022/10/14 03:59:49;;;;;;;37.50;8.25;;;10.40;99.90;;;;;;5095008;28;20047;-39
2022/10/14 04:02:14;;;;;;;31.42;7.85;;;10.40;99.90;;;;;;5094898;28;20050;-38
2022/10/14 04:04:40;;;;;;;42.28;8.45;;;10.40;99.90;;;;;;5094945;28;20504;-39
2022/10/14 04:07:06;;;;;;;31.88;8.73;;;10.40;99.90;;;;;;5093611;28;20039;-39
2022/10/14 04:09:32;;;;;;;24.90;8.48;;;10.40;99.90;;;;;;5092831;28;20192;-40
2022/10/14 04:11:57;;;;;;;21.75;7.43;;;10.40;99.90;;;;;;5086198;28;20078;-40
2022/10/14 04:14:25;;;;;;;30.02;7.65;;;10.40;99.90;;;;;;5086712;28;20032;-38
2022/10/14 04:16:51;;;;;;;17.50;6.88;;;10.50;99.90;;;;;;5095345;28;20071;-38
2022/10/14 04:19:17;;;;;;;24.73;8.10;;;10.50;99.90;;;;;;5092199;28;20035;-40
2022/10/14 04:21:43;;;;;;;24.50;7.57;;;10.50;99.90;;;;;;5092957;28;20163;-38
2022/10/14 04:24:09;;;;;;;24.38;7.60;;;10.50;99.90;;;;;;5090385;28;20373;-38
2022/10/14 04:26:35;;;;;;;19.98;7.20;;;10.50;99.90;;;;;;5092767;28;20051;-38
2022/10/14 04:29:01;;;;;;;28.13;8.50;;;10.50;99.90;;;;;;5092434;28;20039;-39
2022/10/14 04:31:26;;;;;;;27.80;7.15;;;10.40;99.90;;;;;;5094077;28;20161;-40
2022/10/14 04:33:52;;;;;;;13.02;6.47;;;10.50;99.90;;;;;;5095008;28;20038;-40
2022/10/14 04:36:18;;;;;;;17.55;6.95;;;10.40;99.90;;;;;;5095107;28;20074;-40
2022/10/14 04:38:43;;;;;;;17.52;6.80;;;10.40;99.90;;;;;;5095893;28;20050;-39
2022/10/14 04:41:09;;;;;;;19.45;7.55;;;10.50;99.90;;;;;;5092784;28;20043;-39
2022/10/14 04:43:35;;;;;;;24.58;8.02;;;10.50;99.90;;;;;;5094722;28;20063;-40
2022/10/14 04:46:00;;;;;;;17.27;7.22;;;10.50;99.90;;;;;;5091966;28;20040;-40
2022/10/14 04:48:26;;;;;;;29.58;9.05;;;10.50;99.90;;;;;;5097985;28;20074;-39
2022/10/14 04:50:52;;;;;;;39.75;9.18;;;10.50;99.90;;;;;;5095845;28;20034;-41
2022/10/14 04:53:19;;;;;;;45.65;10.18;;;10.50;99.90;;;;;;5093528;28;20054;-39
2022/10/14 04:55:45;;;;;;;39.08;8.80;;;10.50;99.90;;;;;;5093372;28;20124;-40
2022/10/14 04:58:11;;;;;;;27.95;8.68;;;10.50;99.90;;;;;;5090460;28;20074;-39
2022/10/14 05:00:38;;;;;;;66.68;11.05;;;10.50;99.90;;;;;;5094232;28;20067;-39
2022/10/14 05:03:03;;;;;;;24.27;6.43;;;10.50;99.90;;;;;;5091798;28;20040;-40
2022/10/14 05:05:29;;;;;;;54.60;10.40;;;10.50;99.90;;;;;;5093342;28;20100;-39
2022/10/14 05:07:55;;;;;;;54.15;11.35;;;10.50;99.90;;;;;;5091414;28;20032;-39
2022/10/14 05:10:21;;;;;;;74.20;12.30;;;10.50;99.90;;;;;;5092883;28;20067;-37
2022/10/14 05:12:47;;;;;;;65.28;11.40;;;10.50;99.90;;;;;;5093581;28;20156;-39
2022/10/14 05:15:13;;;;;;;37.55;9.43;;;10.50;99.90;;;;;;5093293;28;20114;-39
2022/10/14 05:17:38;;;;;;;55.80;10.25;;;10.50;99.90;;;;;;5093377;28;20962;-41
2022/10/14 05:20:05;;;;;;;76.43;10.88;;;10.50;99.90;;;;;;5097937;28;20092;-39
2022/10/14 05:22:31;;;;;;;57.92;12.68;;;10.60;99.90;;;;;;5093933;28;20046;-45
2022/10/14 05:24:57;;;;;;;37.20;9.13;;;10.60;99.90;;;;;;5091240;28;20047;-40
2022/10/14 05:27:23;;;;;;;80.80;11.85;;;10.60;99.90;;;;;;5089744;28;20100;-39
2022/10/14 05:29:48;;;;;;;96.95;14.23;;;10.60;99.90;;;;;;5094485;28;20032;-39
2022/10/14 05:32:14;;;;;;;64.38;12.23;;;10.60;99.90;;;;;;5100300;28;20499;-39
2022/10/14 05:34:40;;;;;;;85.95;13.32;;;10.60;99.90;;;;;;5104998;28;20035;-40
2022/10/14 05:37:06;;;;;;;70.35;12.30;;;10.60;99.90;;;;;;5107883;28;20382;-39
2022/10/14 05:39:31;;;;;;;99.65;13.90;;;10.60;99.90;;;;;;5087685;28;20078;-39
2022/10/14 05:41:57;;;;;;;69.22;12.75;;;10.60;99.90;;;;;;5091124;28;21280;-39
2022/10/14 05:44:23;;;;;;;46.03;11.30;;;10.60;99.90;;;;;;5089599;28;20035;-39
2022/10/14 05:46:49;;;;;;;52.40;13.35;;;10.60;99.90;;;;;;5092905;28;20724;-39
2022/10/14 05:49:15;;;;;;;43.88;10.45;;;10.70;99.90;;;;;;5086883;28;20036;-39
2022/10/14 05:51:40;;;;;;;28.15;10.30;;;10.70;99.90;;;;;;5088809;28;20127;-39
2022/10/14 05:54:06;;;;;;;24.02;9.45;;;10.60;99.90;;;;;;5086056;28;20039;-39
2022/10/14 05:56:32;;;;;;;75.53;12.93;;;10.60;99.90;;;;;;5086500;28;20588;-38
2022/10/14 05:58:57;;;;;;;39.38;10.25;;;10.70;99.90;;;;;;5089750;28;20074;-40
2022/10/14 06:01:23;;;;;;;42.50;10.75;;;10.70;99.90;;;;;;5089995;28;20040;-39
2022/10/14 06:03:50;;;;;;;38.85;11.15;;;10.70;99.90;;;;;;5090846;28;20032;-39
2022/10/14 06:06:16;;;;;;;40.72;12.10;;;10.70;99.90;;;;;;5087264;28;20048;-39
2022/10/14 06:08:42;;;;;;;65.90;13.02;;;10.70;99.90;;;;;;5088474;28;20492;-40
2022/10/14 06:11:08;;;;;;;33.97;11.88;;;10.70;99.90;;;;;;5091987;28;20046;-39
2022/10/14 06:13:34;;;;;;;23.25;8.95;;;10.70;99.90;;;;;;5090735;28;20042;-39
2022/10/14 06:16:04;;;;;;;38.22;11.95;;;10.70;99.90;;;;;;5094800;28;20042;-39
2022/10/14 06:18:31;;;;;;;35.70;10.70;;;10.80;99.90;;;;;;5105235;28;20040;-39
2022/10/14 06:20:56;;;;;;;32.22;10.77;;;10.80;99.90;;;;;;5104531;28;20043;-39
2022/10/14 06:23:22;;;;;;;35.90;11.90;;;10.80;99.90;;;;;;5101565;28;20043;-38
2022/10/14 06:25:47;;;;;;;29.67;11.38;;;10.80;99.90;;;;;;5104542;28;20410;-39
2022/10/14 06:28:13;;;;;;;24.40;8.77;;;10.80;99.90;;;;;;5100898;28;20027;-40
2022/10/14 06:30:39;;;;;;;39.60;11.35;;;10.80;99.90;;;;;;5097329;28;20040;-39
2022/10/14 06:33:04;;;;;;;21.77;8.98;;;10.80;99.90;;;;;;5103941;28;20031;-40
2022/10/14 06:35:30;;;;;;;23.45;9.50;;;10.90;99.90;;;;;;5098672;28;20480;-39
2022/10/14 06:37:56;;;;;;;46.72;11.68;;;10.90;99.90;;;;;;5099316;28;20077;-39
2022/10/14 06:40:22;;;;;;;33.47;10.80;;;10.90;99.90;;;;;;5093850;28;20043;-40
2022/10/14 06:42:47;;;;;;;40.00;12.15;;;11.00;99.90;;;;;;5096102;28;20032;-39
2022/10/14 06:45:13;;;;;;;21.17;8.30;;;11.00;99.90;;;;;;5092257;28;20032;-38
2022/10/14 06:47:39;;;;;;;30.80;11.13;;;11.00;99.90;;;;;;5094984;28;20412;-40
2022/10/14 06:50:05;;;;;;;32.13;10.77;;;11.10;99.90;;;;;;5099673;28;20036;-39
2022/10/14 06:52:30;;;;;;;23.58;8.98;;;11.00;99.90;;;;;;5104350;28;20408;-39
2022/10/14 06:54:56;;;;;;;28.48;10.73;;;11.10;99.90;;;;;;5092641;28;20039;-39
2022/10/14 06:57:22;;;;;;;27.85;10.40;;;11.10;99.90;;;;;;5099954;28;20476;-39
2022/10/14 06:59:48;;;;;;;31.85;11.77;;;11.10;99.90;;;;;;5102457;28;20030;-39
2022/10/14 07:02:13;;;;;;;30.67;11.52;;;11.10;99.90;;;;;;5105242;28;20035;-40
2022/10/14 07:04:39;;;;;;;25.77;10.45;;;11.10;99.90;;;;;;5108521;28;20044;-39
2022/10/14 07:07:08;;;;;;;24.63;9.95;;;11.10;99.90;;;;;;5103712;28;21719;-37
2022/10/14 07:09:34;;;;;;;29.67;10.60;;;11.20;99.90;;;;;;5100904;28;20036;-37
2022/10/14 07:12:00;;;;;;;31.08;11.57;;;11.20;99.90;;;;;;5103672;28;20035;-38
2022/10/14 07:14:26;;;;;;;28.95;11.30;;;11.20;99.90;;;;;;5108719;28;20608;-39
2022/10/14 07:16:52;;;;;;;26.80;11.43;;;11.30;99.90;;;;;;5082208;28;20070;-37
2022/10/14 07:19:18;;;;;;;20.42;9.02;;;11.30;99.90;;;;;;5100704;28;20416;-38
2022/10/14 07:21:45;;;;;;;30.67;12.13;;;11.30;99.90;;;;;;5102882;28;20477;-38
2022/10/14 07:24:11;;;;;;;27.42;11.18;;;11.30;99.90;;;;;;5107388;28;20052;-38
2022/10/14 07:26:37;;;;;;;30.10;12.18;;;11.30;99.90;;;;;;5100276;28;20063;-38
2022/10/14 07:29:04;;;;;;;28.60;11.65;;;11.40;99.90;;;;;;5110190;28;20480;-38
2022/10/14 07:31:30;;;;;;;30.58;12.32;;;11.40;99.90;;;;;;5104213;28;20393;-38
2022/10/14 07:33:56;;;;;;;27.52;11.57;;;11.40;99.90;;;;;;5107077;28;20032;-37
2022/10/14 07:36:22;;;;;;;36.25;13.05;;;11.40;99.90;;;;;;5103640;28;20039;-37
2022/10/14 07:38:48;;;;;;;30.63;11.82;;;11.50;99.90;;;;;;5094158;28;20040;-37
2022/10/14 07:41:20;;;;;;;33.80;13.55;;;11.50;99.90;;;;;;5099755;28;20218;-38
2022/10/14 07:43:52;;;;;;;31.80;12.93;;;11.50;99.90;;;;;;5085623;28;20095;-37
2022/10/14 07:46:28;;;;;;;35.07;14.23;;;11.60;99.90;;;;;;5102310;28;20036;-38
2022/10/14 07:48:55;;;;;;;34.95;13.63;;;11.60;99.90;;;;;;5104050;28;20046;-39
2022/10/14 07:51:21;;;;;;;31.38;12.13;;;11.60;99.90;;;;;;5101813;28;20043;-41
2022/10/14 07:53:47;;;;;;;25.55;10.82;;;11.70;99.90;;;;;;5105017;28;20492;-40
2022/10/14 07:56:13;;;;;;;41.80;14.88;;;11.70;99.90;;;;;;5102903;28;20043;-39
2022/10/14 07:58:39;;;;;;;38.53;14.80;;;11.70;99.90;;;;;;5103055;28;20484;-40
2022/10/14 08:01:05;;;;;;;32.10;14.23;;;11.70;99.90;;;;;;5100424;28;20042;-41
2022/10/14 08:03:30;;;;;;;40.10;15.38;;;11.60;99.90;;;;;;5105730;28;20035;-39
2022/10/14 08:06:01;;;;;;;35.45;14.02;;;11.70;99.90;;;;;;5105996;28;20287;-41
2022/10/14 08:08:27;;;;;;;39.05;15.13;;;11.70;99.90;;;;;;5097376;28;20131;-39
2022/10/14 08:11:11;;;;;;;40.15;15.52;;;11.70;99.90;;;;;;5099375;28;20165;-39
2022/10/14 08:13:37;;;;;;;44.40;16.63;;;11.70;99.90;;;;;;5101691;28;20673;-38
2022/10/14 08:16:16;;;;;;;41.45;14.50;;;11.70;99.90;;;;;;5094776;28;20032;-39
2022/10/14 08:18:42;;;;;;;45.33;16.15;;;11.70;99.90;;;;;;5099642;28;20051;-39
2022/10/14 08:21:08;;;;;;;46.33;15.90;;;11.70;99.90;;;;;;5103927;28;20464;-40
2022/10/14 08:23:33;;;;;;;37.13;14.90;;;11.70;99.90;;;;;;5107490;28;20046;-40
2022/10/14 08:25:59;;;;;;;39.83;15.23;;;11.80;99.90;;;;;;5109094;28;21040;-40
2022/10/14 08:28:25;;;;;;;46.58;15.73;;;11.80;99.90;;;;;;5106890;28;20450;-40
2022/10/14 08:30:52;;;;;;;34.75;13.43;;;11.80;99.90;;;;;;5107072;28;20027;-39
2022/10/14 08:33:18;;;;;;;34.97;13.88;;;11.90;99.90;;;;;;5102628;28;20536;-40
2022/10/14 08:35:44;;;;;;;39.83;14.57;;;11.90;99.90;;;;;;5104339;28;20512;-39
2022/10/14 08:38:10;;;;;;;44.83;15.70;;;11.90;99.90;;;;;;5099290;28;20036;-40
2022/10/14 08:41:06;;;;;;;36.22;14.18;;;11.90;99.90;;;;;;5096631;28;20075;-47
2022/10/14 08:43:57;;;;;;;31.38;12.50;;;11.90;99.90;;;;;;5096801;28;20161;-38
2022/10/14 08:46:50;;;;;;;25.58;10.60;;;12.00;99.90;;;;;;5102361;28;20043;-40
2022/10/14 08:49:47;;;;;;;;;;;12.00;99.90;;;;;;5102094;28;20027;-38
2022/10/14 08:52:20;;;;;;;29.27;11.45;;;12.00;99.90;;;;;;5062180;28;19922;-40
2022/10/14 08:54:54;;;;;;;32.00;11.85;;;12.00;99.90;;;;;;5098558;28;20038;-40
2022/10/14 08:57:24;;;;;;;23.23;8.93;;;12.00;99.90;;;;;;5097834;28;20044;-39
2022/10/14 08:59:50;;;;;;;28.58;11.38;;;12.00;99.90;;;;;;5100179;28;20032;-38
2022/10/14 09:02:23;;;;;;;26.77;10.07;;;12.00;99.90;;;;;;5098117;28;20538;-40
2022/10/14 09:04:49;;;;;;;28.98;12.73;;;12.10;99.90;;;;;;5103635;28;20166;-40
2022/10/14 09:07:18;;;;;;;23.45;9.20;;;12.10;99.90;;;;;;5098284;28;20093;-40
2022/10/14 09:09:50;;;;;;;29.13;10.65;;;12.10;99.90;;;;;;5106568;28;20046;-39
2022/10/14 09:12:19;;;;;;;27.08;10.25;;;12.10;99.90;;;;;;5102302;28;20088;-39
2022/10/14 09:14:51;;;;;;;22.75;8.38;;;12.10;99.90;;;;;;5105214;28;20086;-40
2022/10/14 09:17:28;;;;;;;29.70;10.30;;;12.10;99.90;;;;;;5100563;28;20044;-39
2022/10/14 09:20:13;;;;;;;26.80;9.18;;;12.10;99.90;;;;;;5098655;28;20492;-39
2022/10/14 09:22:38;;;;;;;18.10;7.53;;;12.20;99.90;;;;;;5097259;28;20056;-38
2022/10/14 09:25:13;;;;;;;26.23;9.60;;;12.20;99.90;;;;;;5106728;28;20079;-38
2022/10/14 09:27:39;;;;;;;23.30;9.38;;;12.20;99.90;;;;;;5076221;28;20135;-38
2022/10/14 09:30:09;;;;;;;23.33;9.27;;;12.20;99.90;;;;;;5098185;28;20118;-41
2022/10/14 09:32:38;;;;;;;24.15;9.52;;;12.30;99.90;;;;;;5077058;28;20130;-38
2022/10/14 09:35:23;;;;;;;21.13;8.50;;;12.30;99.90;;;;;;5101683;28;20415;-38
2022/10/14 09:37:50;;;;;;;17.50;7.80;;;12.30;99.90;;;;;;5104575;28;20548;-39
2022/10/14 09:40:31;;;;;;;21.25;8.70;;;12.40;99.90;;;;;;5106633;28;20163;-39
2022/10/14 09:43:09;;;;;;;16.35;7.47;;;12.40;99.90;;;;;;5097617;28;20161;-39
2022/10/14 09:45:47;;;;;;;18.52;7.47;;;12.40;99.90;;;;;;5101304;28;20036;-39
2022/10/14 09:48:17;;;;;;;18.55;7.30;;;12.50;99.90;;;;;;5105521;28;20040;-39
2022/10/14 09:50:50;;;;;;;20.80;7.88;;;12.50;99.90;;;;;;5104823;28;20036;-38
2022/10/14 09:53:29;;;;;;;19.40;8.48;;;12.50;99.90;;;;;;5095269;28;20039;-38
2022/10/14 09:55:58;;;;;;;20.13;8.48;;;12.60;99.90;;;;;;5098991;28;20296;-38
2022/10/14 09:58:46;;;;;;;20.48;8.07;;;12.60;99.90;;;;;;5098920;28;20120;-38
2022/10/14 10:01:24;;;;;;;22.27;7.85;;;12.70;99.90;;;;;;5103618;28;20078;-39
2022/10/14 10:03:50;;;;;;;20.95;7.70;;;12.70;99.90;;;;;;5104551;28;20560;-39
2022/10/14 10:06:24;;;;;;;21.52;8.90;;;12.70;99.90;;;;;;5097614;28;20027;-39
2022/10/14 10:08:54;;;;;;;22.88;9.18;;;12.70;99.90;;;;;;5100794;28;20039;-42
2022/10/14 10:11:28;;;;;;;25.80;9.93;;;12.80;99.90;;;;;;5097021;28;20477;-41
2022/10/14 10:13:54;;;;;;;29.60;9.85;;;12.80;99.90;;;;;;5102909;28;20043;-41
2022/10/14 10:16:30;;;;;;;23.00;9.45;;;12.80;99.90;;;;;;5104057;28;20127;-40
2022/10/14 10:18:56;;;;;;;26.83;10.18;;;12.80;99.90;;;;;;5097617;28;20043;-41
2022/10/14 10:21:31;;;;;;;30.42;10.63;;;12.90;99.90;;;;;;5102270;28;20036;-39
2022/10/14 10:24:02;;;;;;;28.73;11.63;;;12.90;99.90;;;;;;5097618;28;20028;-40
2022/10/14 10:26:31;;;;;;;29.05;11.48;;;13.00;99.90;;;;;;5096472;28;20419;-39
2022/10/14 10:29:03;;;;;;;29.45;11.38;;;13.00;99.90;;;;;;5101747;28;20031;-40
2022/10/14 10:31:46;;;;;;;31.25;11.50;;;13.00;99.90;;;;;;5102041;28;20039;-40
2022/10/14 10:34:36;;;;;;;32.25;11.88;;;13.10;99.90;;;;;;5095466;28;20028;-38
2022/10/14 10:37:25;;;;;;;35.25;12.45;;;13.10;99.90;;;;;;5101716;28;20504;-39
2022/10/14 10:40:00;;;;;;;35.97;13.43;;;13.20;99.90;;;;;;5099349;28;20066;-40
2022/10/14 10:42:59;;;;;;;33.85;12.70;;;13.30;99.90;;;;;;5098807;28;20048;-39
2022/10/14 10:46:02;;;;;;;32.28;12.43;;;13.30;99.90;;;;;;5100517;28;20051;-40
2022/10/14 10:48:40;;;;;;;;;;;13.40;99.90;;;;;;5096613;28;20044;-39
2022/10/14 10:51:28;;;;;;;34.33;12.43;;;13.40;99.90;;;;;;5083462;28;19919;-40
2022/10/14 10:54:01;;;;;;;32.38;13.07;;;13.50;99.90;;;;;;5098333;28;20040;-41
2022/10/14 10:56:51;;;;;;;30.10;12.32;;;13.50;99.90;;;;;;5074452;28;20112;-39
2022/10/14 10:59:55;;;;;;;27.77;11.48;;;13.50;99.90;;;;;;5100897;28;20040;-43
2022/10/14 11:02:49;;;;;;;26.40;10.75;;;13.50;99.90;;;;;;5102320;28;20039;-39
2022/10/14 11:05:35;;;;;;;32.83;11.25;;;13.60;99.90;;;;;;5096999;28;20052;-43
2022/10/14 11:12:01;;;;;;;29.57;11.47;;;13.60;99.90;;;;;;5104146;28;20080;-39
2022/10/14 11:14:13;;;;;;;23.00;9.05;;;13.60;99.90;;;;;;5103125;28;20046;-39
2022/10/14 11:17:05;;;;;;;23.35;9.55;;;13.60;99.90;;;;;;5106738;28;20047;-39
2022/10/14 11:19:43;;;;;;;24.17;9.60;;;13.70;99.90;;;;;;5057365;28;20124;-40
2022/10/14 11:22:31;;;;;;;20.63;8.68;;;13.70;99.90;;;;;;5099568;28;20040;-41
2022/10/14 11:25:09;;;;;;;21.15;8.52;;;13.70;99.90;;;;;;5092226;28;20058;-39
2022/10/14 11:27:56;;;;;;;15.00;7.85;;;13.80;99.90;;;;;;5101793;28;20047;-39
2022/10/14 11:30:59;;;;;;;12.90;6.85;;;13.80;99.90;;;;;;5102338;28;20060;-40
2022/10/14 11:33:34;;;;;;;;;;;13.80;99.90;;;;;;5022263;28;20126;-39
2022/10/14 11:36:20;;;;;;;10.25;5.35;;;13.90;99.90;;;;;;5092242;28;19924;-39
2022/10/14 11:38:57;;;;;;;8.75;4.80;;;13.90;99.90;;;;;;5102817;28;20047;-39
2022/10/14 11:41:45;;;;;;;12.00;5.45;;;14.00;99.90;;;;;;5102213;28;20046;-38
2022/10/14 11:44:35;;;;;;;9.50;5.55;;;14.00;99.90;;;;;;5097200;28;20516;-38
2022/10/14 11:47:10;;;;;;;9.63;5.45;;;14.10;99.90;;;;;;5102242;28;20035;-39
2022/10/14 11:50:00;;;;;;;7.82;4.45;;;14.10;99.90;;;;;;5102798;28;20573;-38
2022/10/14 11:52:36;;;;;;;8.05;4.75;;;14.20;99.90;;;;;;5104260;28;20126;-37
2022/10/14 11:55:24;;;;;;;8.15;4.47;;;14.30;99.90;;;;;;5099686;28;20042;-38
2022/10/14 11:57:52;;;;;;;6.88;4.43;;;14.40;99.90;;;;;;5097332;28;20377;-38
2022/10/14 12:00:20;;;;;;;7.18;4.05;;;14.50;99.90;;;;;;5098173;28;20500;-37
2022/10/14 12:03:08;;;;;;;6.88;4.25;;;14.50;99.90;;;;;;5102026;28;20459;-38
2022/10/14 12:06:04;;;;;;;5.78;3.90;;;14.60;99.90;;;;;;5097670;28;20040;-38
2022/10/14 12:08:46;;;;;;;8.13;4.10;;;14.60;99.90;;;;;;5100938;28;20035;-38
2022/10/14 12:11:27;;;;;;;9.45;4.13;;;14.70;99.90;;;;;;5107427;28;20038;-39
2022/10/14 12:14:01;;;;;;;8.50;4.53;;;14.70;99.90;;;;;;5105174;28;20164;-37
2022/10/14 12:16:27;;;;;;;7.43;4.30;;;14.70;99.90;;;;;;5107064;28;20036;-38
2022/10/14 12:18:56;;;;;;;6.10;4.10;;;14.70;99.90;;;;;;5102564;28;20047;-37
2022/10/14 12:21:34;;;;;;;7.90;4.40;;;14.70;99.90;;;;;;5109446;28;20442;-37
2022/10/14 12:24:06;;;;;;;5.82;4.05;;;14.70;99.90;;;;;;5106068;28;20543;-37
2022/10/14 12:26:55;;;;;;;7.07;4.55;;;14.70;99.90;;;;;;5101799;28;20048;-38
2022/10/14 12:29:29;;;;;;;7.38;4.95;;;14.70;99.90;;;;;;5110474;28;20540;-37
2022/10/14 12:32:06;;;;;;;7.53;4.32;;;14.70;99.90;;;;;;5106993;28;20035;-36
2022/10/14 12:34:34;;;;;;;7.57;4.32;;;14.70;99.90;;;;;;5109180;28;20061;-37
2022/10/14 12:37:22;;;;;;;7.25;4.75;;;14.60;99.90;;;;;;5105181;28;20040;-38
2022/10/14 12:40:01;;;;;;;8.07;5.45;;;14.60;99.90;;;;;;5103334;28;20090;-37
2022/10/14 12:42:29;;;;;;;7.15;4.88;;;14.70;99.90;;;;;;5104014;28;20480;-38
2022/10/14 12:44:57;;;;;;;9.00;6.30;;;14.70;99.90;;;;;;5104290;28;20526;-38
2022/10/14 12:47:32;;;;;;;7.13;4.60;;;14.70;99.90;;;;;;5102706;28;20042;-36
2022/10/14 12:50:03;;;;;;;7.32;5.25;;;14.70;99.90;;;;;;5102337;28;20433;-37
2022/10/14 12:52:32;;;;;;;8.07;5.47;;;14.70;99.90;;;;;;5103631;28;20482;-37
2022/10/14 12:55:01;;;;;;;8.27;5.90;;;14.70;99.90;;;;;;5100867;28;20492;-37
2022/10/14 12:57:32;;;;;;;9.20;5.90;;;14.70;99.90;;;;;;5100761;28;20048;-38